Terminal Aerodrome Forecast
Issued by NWS Sioux Falls, SD

Home | Current Version | Previous Version | Text Only | Print | Product List | Glossary Off
Versions: 1 2 3 4 5 6 7 8 9 10 11 12 13 14 15 16 17

000
FTUS43 KFSD 280622 RRA
TAFFSD
TAF
KFSD 280622Z 2806/2906 15011KT P6SM BKN250
     FM281500 17012KT P6SM SCT008 BKN200
     FM281900 19008KT P6SM BKN200
     FM282100 31010KT P6SM BKN200
     FM290000 32013KT P6SM SCT015 BKN150
     FM290200 33021G30KT P6SM BKN015=

USA.gov is the U.S. government's official web portal to all federal, state and local government web resources and services.